Rhinebeck, New York
Current Conditions -  °F | °C
As of 1:00 AM on Monday 24 Nov 2014 (Local Time) from KPOU Reporting Station
Overcast Overcast  
Wind Chill: 48°   Ceiling: 3900
Heat Index: 48°   Visibility: 10mi
Dew Point: 37°   Wind: 0mph
Humidity: 66%   Direction: NA
Pressure: 29.95"   Gusts: NA
Location:  41.93°N, 73.91°W
Report Text: KPOU 240600Z AUTO 00000KT 10SM SCT027 BKN039 OVC060 09/03 A2995 RMK AO2 PRESFR T00890028 TSNO
Loading
Personal Weather Stations






























Interactive Weather Map New forecast layout! Learn more

10-Day Weather Forecast

Advertisements
Track Severe Weather on mobile